sensor_id;sensor_type;location;lat;lon;timestamp;P1;durP1;ratioP1;P2;durP2;ratioP2
19341;SDS011;9807;48.258;12.690;2024-03-23T00:51:03;8.97;;;7.10;;
19341;SDS011;9807;48.258;12.690;2024-03-23T00:55:55;13.53;;;9.43;;
19341;SDS011;9807;48.258;12.690;2024-03-23T00:58:21;12.73;;;8.93;;
19341;SDS011;9807;48.258;12.690;2024-03-23T01:00:46;12.70;;;9.43;;
19341;SDS011;9807;48.258;12.690;2024-03-23T01:03:12;11.57;;;8.20;;
19341;SDS011;9807;48.258;12.690;2024-03-23T01:05:38;10.37;;;7.97;;
19341;SDS011;9807;48.258;12.690;2024-03-23T01:08:03;8.70;;;7.20;;
19341;SDS011;9807;48.258;12.690;2024-03-23T01:10:29;9.37;;;6.30;;
19341;SDS011;9807;48.258;12.690;2024-03-23T01:12:55;6.33;;;5.50;;
19341;SDS011;9807;48.258;12.690;2024-03-23T01:15:21;9.40;;;6.30;;
19341;SDS011;9807;48.258;12.690;2024-03-23T01:17:47;8.30;;;6.40;;
19341;SDS011;9807;48.258;12.690;2024-03-23T01:20:12;11.70;;;8.03;;
19341;SDS011;9807;48.258;12.690;2024-03-23T01:22:38;9.90;;;6.57;;
19341;SDS011;9807;48.258;12.690;2024-03-23T01:25:04;11.20;;;8.37;;
19341;SDS011;9807;48.258;12.690;2024-03-23T01:27:29;6.93;;;6.10;;
19341;SDS011;9807;48.258;12.690;2024-03-23T01:29:55;8.20;;;5.90;;
19341;SDS011;9807;48.258;12.690;2024-03-23T01:32:21;9.70;;;7.10;;
19341;SDS011;9807;48.258;12.690;2024-03-23T01:34:46;6.53;;;5.40;;
19341;SDS011;9807;48.258;12.690;2024-03-23T01:37:12;7.53;;;6.03;;
19341;SDS011;9807;48.258;12.690;2024-03-23T01:39:38;7.47;;;5.60;;
19341;SDS011;9807;48.258;12.690;2024-03-23T01:42:04;6.90;;;5.30;;
19341;SDS011;9807;48.258;12.690;2024-03-23T01:44:29;6.57;;;5.30;;
19341;SDS011;9807;48.258;12.690;2024-03-23T01:46:55;5.67;;;4.83;;
19341;SDS011;9807;48.258;12.690;2024-03-23T01:49:21;7.20;;;5.43;;
19341;SDS011;9807;48.258;12.690;2024-03-23T01:51:46;7.37;;;5.73;;
19341;SDS011;9807;48.258;12.690;2024-03-23T01:54:12;7.60;;;6.43;;
19341;SDS011;9807;48.258;12.690;2024-03-23T01:56:38;9.23;;;6.90;;
19341;SDS011;9807;48.258;12.690;2024-03-23T01:59:05;7.23;;;5.70;;
19341;SDS011;9807;48.258;12.690;2024-03-23T02:01:31;9.73;;;6.40;;
19341;SDS011;9807;48.258;12.690;2024-03-23T02:03:57;7.73;;;5.43;;
19341;SDS011;9807;48.258;12.690;2024-03-23T02:06:26;10.23;;;7.30;;
19341;SDS011;9807;48.258;12.690;2024-03-23T02:08:52;8.03;;;6.30;;
19341;SDS011;9807;48.258;12.690;2024-03-23T02:11:21;10.63;;;5.77;;
19341;SDS011;9807;48.258;12.690;2024-03-23T02:13:47;8.53;;;6.60;;
19341;SDS011;9807;48.258;12.690;2024-03-23T02:16:13;7.20;;;5.73;;
19341;SDS011;9807;48.258;12.690;2024-03-23T02:18:39;5.63;;;5.03;;
19341;SDS011;9807;48.258;12.690;2024-03-23T02:21:04;6.30;;;5.57;;
19341;SDS011;9807;48.258;12.690;2024-03-23T02:23:30;6.83;;;5.60;;
19341;SDS011;9807;48.258;12.690;2024-03-23T02:25:56;6.80;;;5.30;;
19341;SDS011;9807;48.258;12.690;2024-03-23T02:28:22;5.70;;;5.00;;
19341;SDS011;9807;48.258;12.690;2024-03-23T02:30:51;6.70;;;5.07;;
19341;SDS011;9807;48.258;12.690;2024-03-23T02:33:17;10.03;;;5.90;;
19341;SDS011;9807;48.258;12.690;2024-03-23T02:35:43;7.07;;;5.87;;
19341;SDS011;9807;48.258;12.690;2024-03-23T02:38:10;5.73;;;4.90;;
19341;SDS011;9807;48.258;12.690;2024-03-23T02:40:36;10.03;;;7.20;;
19341;SDS011;9807;48.258;12.690;2024-03-23T02:43:02;12.83;;;7.90;;
19341;SDS011;9807;48.258;12.690;2024-03-23T02:45:28;9.13;;;6.70;;
19341;SDS011;9807;48.258;12.690;2024-03-23T02:47:54;6.57;;;5.23;;
19341;SDS011;9807;48.258;12.690;2024-03-23T02:50:20;9.30;;;6.80;;
19341;SDS011;9807;48.258;12.690;2024-03-23T02:52:46;6.07;;;5.37;;
19341;SDS011;9807;48.258;12.690;2024-03-23T02:55:12;5.73;;;5.00;;
19341;SDS011;9807;48.258;12.690;2024-03-23T02:57:38;7.40;;;4.87;;
19341;SDS011;9807;48.258;12.690;2024-03-23T03:00:05;10.13;;;6.00;;
19341;SDS011;9807;48.258;12.690;2024-03-23T03:02:32;6.53;;;5.27;;
19341;SDS011;9807;48.258;12.690;2024-03-23T03:04:58;7.77;;;5.37;;
19341;SDS011;9807;48.258;12.690;2024-03-23T03:07:24;5.17;;;4.67;;
19341;SDS011;9807;48.258;12.690;2024-03-23T03:09:50;6.50;;;5.50;;
19341;SDS011;9807;48.258;12.690;2024-03-23T03:12:15;6.70;;;4.77;;
19341;SDS011;9807;48.258;12.690;2024-03-23T03:14:41;6.60;;;4.93;;
19341;SDS011;9807;48.258;12.690;2024-03-23T03:17:07;9.50;;;6.10;;
19341;SDS011;9807;48.258;12.690;2024-03-23T03:19:33;6.43;;;5.23;;
19341;SDS011;9807;48.258;12.690;2024-03-23T03:21:59;7.20;;;5.37;;
19341;SDS011;9807;48.258;12.690;2024-03-23T03:24:25;8.43;;;6.03;;
19341;SDS011;9807;48.258;12.690;2024-03-23T03:26:50;6.83;;;5.00;;
19341;SDS011;9807;48.258;12.690;2024-03-23T03:29:16;7.50;;;5.80;;
19341;SDS011;9807;48.258;12.690;2024-03-23T03:31:42;6.40;;;4.70;;
19341;SDS011;9807;48.258;12.690;2024-03-23T03:34:09;5.50;;;4.83;;
19341;SDS011;9807;48.258;12.690;2024-03-23T03:36:36;6.63;;;5.23;;
19341;SDS011;9807;48.258;12.690;2024-03-23T03:39:01;5.50;;;5.00;;
19341;SDS011;9807;48.258;12.690;2024-03-23T03:41:31;9.27;;;5.73;;
19341;SDS011;9807;48.258;12.690;2024-03-23T03:43:57;6.10;;;5.30;;
19341;SDS011;9807;48.258;12.690;2024-03-23T03:46:26;7.27;;;5.10;;
19341;SDS011;9807;48.258;12.690;2024-03-23T03:48:55;8.43;;;6.63;;
19341;SDS011;9807;48.258;12.690;2024-03-23T03:51:21;6.53;;;5.30;;
19341;SDS011;9807;48.258;12.690;2024-03-23T03:53:46;6.00;;;4.80;;
19341;SDS011;9807;48.258;12.690;2024-03-23T03:56:12;6.10;;;4.60;;
19341;SDS011;9807;48.258;12.690;2024-03-23T03:58:38;5.60;;;4.70;;
19341;SDS011;9807;48.258;12.690;2024-03-23T04:01:04;7.23;;;5.50;;
19341;SDS011;9807;48.258;12.690;2024-03-23T04:03:30;7.40;;;4.53;;
19341;SDS011;9807;48.258;12.690;2024-03-23T04:05:56;9.30;;;5.57;;
19341;SDS011;9807;48.258;12.690;2024-03-23T04:08:21;5.87;;;4.70;;
19341;SDS011;9807;48.258;12.690;2024-03-23T04:10:47;6.43;;;4.50;;
19341;SDS011;9807;48.258;12.690;2024-03-23T04:13:13;8.00;;;4.77;;
19341;SDS011;9807;48.258;12.690;2024-03-23T04:15:39;6.77;;;5.10;;
19341;SDS011;9807;48.258;12.690;2024-03-23T04:18:05;6.13;;;4.50;;
19341;SDS011;9807;48.258;12.690;2024-03-23T04:20:31;7.63;;;5.70;;
19341;SDS011;9807;48.258;12.690;2024-03-23T04:22:58;5.33;;;4.80;;
19341;SDS011;9807;48.258;12.690;2024-03-23T04:25:24;7.10;;;4.57;;
19341;SDS011;9807;48.258;12.690;2024-03-23T04:27:50;6.70;;;4.70;;
19341;SDS011;9807;48.258;12.690;2024-03-23T04:30:16;7.13;;;4.40;;
19341;SDS011;9807;48.258;12.690;2024-03-23T04:32:42;4.90;;;4.00;;
19341;SDS011;9807;48.258;12.690;2024-03-23T04:35:09;5.00;;;4.50;;
19341;SDS011;9807;48.258;12.690;2024-03-23T04:37:36;11.10;;;6.03;;
19341;SDS011;9807;48.258;12.690;2024-03-23T04:40:02;8.27;;;5.90;;
19341;SDS011;9807;48.258;12.690;2024-03-23T04:42:29;7.63;;;6.20;;
19341;SDS011;9807;48.258;12.690;2024-03-23T04:44:55;8.47;;;6.00;;
19341;SDS011;9807;48.258;12.690;2024-03-23T04:47:21;5.37;;;4.83;;
19341;SDS011;9807;48.258;12.690;2024-03-23T04:49:47;6.60;;;4.73;;
19341;SDS011;9807;48.258;12.690;2024-03-23T04:52:13;6.73;;;4.83;;
19341;SDS011;9807;48.258;12.690;2024-03-23T04:54:38;5.80;;;4.63;;
19341;SDS011;9807;48.258;12.690;2024-03-23T04:57:07;6.47;;;4.33;;
19341;SDS011;9807;48.258;12.690;2024-03-23T04:59:35;5.03;;;4.53;;
19341;SDS011;9807;48.258;12.690;2024-03-23T05:02:00;7.53;;;4.90;;
19341;SDS011;9807;48.258;12.690;2024-03-23T05:04:27;8.27;;;5.43;;
19341;SDS011;9807;48.258;12.690;2024-03-23T05:06:53;6.40;;;5.27;;
19341;SDS011;9807;48.258;12.690;2024-03-23T05:09:19;6.00;;;4.47;;
19341;SDS011;9807;48.258;12.690;2024-03-23T05:11:45;6.93;;;5.17;;
19341;SDS011;9807;48.258;12.690;2024-03-23T05:14:12;4.97;;;4.30;;
19341;SDS011;9807;48.258;12.690;2024-03-23T05:16:39;7.47;;;5.10;;
19341;SDS011;9807;48.258;12.690;2024-03-23T05:19:05;6.13;;;4.80;;
19341;SDS011;9807;48.258;12.690;2024-03-23T05:21:30;5.83;;;4.60;;
19341;SDS011;9807;48.258;12.690;2024-03-23T05:23:56;6.40;;;4.87;;
19341;SDS011;9807;48.258;12.690;2024-03-23T05:26:22;5.53;;;4.63;;
19341;SDS011;9807;48.258;12.690;2024-03-23T05:28:48;5.03;;;4.33;;
19341;SDS011;9807;48.258;12.690;2024-03-23T05:31:22;5.50;;;4.90;;
19341;SDS011;9807;48.258;12.690;2024-03-23T05:33:51;5.73;;;4.60;;
19341;SDS011;9807;48.258;12.690;2024-03-23T05:36:17;5.93;;;4.57;;
19341;SDS011;9807;48.258;12.690;2024-03-23T05:38:43;6.50;;;4.87;;
19341;SDS011;9807;48.258;12.690;2024-03-23T05:41:13;8.60;;;5.40;;
19341;SDS011;9807;48.258;12.690;2024-03-23T05:43:39;5.80;;;4.60;;
19341;SDS011;9807;48.258;12.690;2024-03-23T05:46:04;5.53;;;4.63;;
19341;SDS011;9807;48.258;12.690;2024-03-23T05:48:30;5.47;;;4.40;;
19341;SDS011;9807;48.258;12.690;2024-03-23T05:50:57;5.73;;;4.47;;
19341;SDS011;9807;48.258;12.690;2024-03-23T05:53:23;7.57;;;5.40;;
19341;SDS011;9807;48.258;12.690;2024-03-23T05:55:49;9.70;;;5.23;;
19341;SDS011;9807;48.258;12.690;2024-03-23T05:58:16;7.37;;;5.00;;
19341;SDS011;9807;48.258;12.690;2024-03-23T06:00:43;7.87;;;5.33;;
19341;SDS011;9807;48.258;12.690;2024-03-23T06:03:09;5.40;;;4.20;;
19341;SDS011;9807;48.258;12.690;2024-03-23T06:05:37;5.43;;;4.30;;
19341;SDS011;9807;48.258;12.690;2024-03-23T06:08:03;8.80;;;5.07;;
19341;SDS011;9807;48.258;12.690;2024-03-23T06:10:29;7.70;;;5.00;;
19341;SDS011;9807;48.258;12.690;2024-03-23T06:12:56;5.90;;;4.67;;
19341;SDS011;9807;48.258;12.690;2024-03-23T06:15:23;6.17;;;5.10;;
19341;SDS011;9807;48.258;12.690;2024-03-23T06:17:49;8.43;;;6.17;;
19341;SDS011;9807;48.258;12.690;2024-03-23T06:20:15;8.37;;;6.50;;
19341;SDS011;9807;48.258;12.690;2024-03-23T06:22:41;8.30;;;5.83;;
19341;SDS011;9807;48.258;12.690;2024-03-23T06:25:07;8.17;;;5.83;;
19341;SDS011;9807;48.258;12.690;2024-03-23T06:27:35;4.93;;;4.40;;
19341;SDS011;9807;48.258;12.690;2024-03-23T06:30:00;6.63;;;5.57;;
19341;SDS011;9807;48.258;12.690;2024-03-23T06:32:27;6.83;;;5.13;;
19341;SDS011;9807;48.258;12.690;2024-03-23T06:34:54;5.63;;;4.70;;
19341;SDS011;9807;48.258;12.690;2024-03-23T06:37:20;7.47;;;5.47;;
19341;SDS011;9807;48.258;12.690;2024-03-23T06:39:46;8.53;;;5.20;;
19341;SDS011;9807;48.258;12.690;2024-03-23T06:42:12;6.47;;;4.67;;
19341;SDS011;9807;48.258;12.690;2024-03-23T06:44:38;6.10;;;4.93;;
19341;SDS011;9807;48.258;12.690;2024-03-23T06:47:05;7.83;;;6.03;;
19341;SDS011;9807;48.258;12.690;2024-03-23T06:49:31;5.67;;;4.60;;
19341;SDS011;9807;48.258;12.690;2024-03-23T06:51:56;5.43;;;4.60;;
19341;SDS011;9807;48.258;12.690;2024-03-23T06:54:22;7.47;;;5.50;;
19341;SDS011;9807;48.258;12.690;2024-03-23T06:56:49;4.97;;;4.40;;
19341;SDS011;9807;48.258;12.690;2024-03-23T06:59:15;9.83;;;5.90;;
19341;SDS011;9807;48.258;12.690;2024-03-23T07:01:40;4.27;;;3.70;;
19341;SDS011;9807;48.258;12.690;2024-03-23T07:04:07;6.60;;;5.23;;
19341;SDS011;9807;48.258;12.690;2024-03-23T07:06:34;5.13;;;4.07;;
19341;SDS011;9807;48.258;12.690;2024-03-23T07:09:09;4.43;;;4.03;;
19341;SDS011;9807;48.258;12.690;2024-03-23T07:11:36;7.47;;;5.00;;
19341;SDS011;9807;48.258;12.690;2024-03-23T07:14:01;10.23;;;5.10;;
19341;SDS011;9807;48.258;12.690;2024-03-23T07:16:28;5.90;;;5.30;;
19341;SDS011;9807;48.258;12.690;2024-03-23T07:18:54;5.83;;;4.27;;
19341;SDS011;9807;48.258;12.690;2024-03-23T07:21:20;5.17;;;4.27;;
19341;SDS011;9807;48.258;12.690;2024-03-23T07:23:47;4.80;;;3.93;;
19341;SDS011;9807;48.258;12.690;2024-03-23T07:26:12;4.20;;;3.80;;
19341;SDS011;9807;48.258;12.690;2024-03-23T07:28:39;7.07;;;4.57;;
19341;SDS011;9807;48.258;12.690;2024-03-23T07:31:10;6.47;;;5.03;;
19341;SDS011;9807;48.258;12.690;2024-03-23T07:33:37;8.27;;;4.03;;
19341;SDS011;9807;48.258;12.690;2024-03-23T07:36:06;4.33;;;3.70;;
19341;SDS011;9807;48.258;12.690;2024-03-23T07:38:32;6.07;;;4.00;;
19341;SDS011;9807;48.258;12.690;2024-03-23T07:41:07;4.80;;;3.77;;
19341;SDS011;9807;48.258;12.690;2024-03-23T07:43:45;5.30;;;3.60;;
19341;SDS011;9807;48.258;12.690;2024-03-23T07:46:12;4.40;;;3.50;;
19341;SDS011;9807;48.258;12.690;2024-03-23T07:48:38;5.70;;;3.60;;
19341;SDS011;9807;48.258;12.690;2024-03-23T07:51:08;4.83;;;3.20;;
19341;SDS011;9807;48.258;12.690;2024-03-23T07:53:36;4.30;;;3.47;;
19341;SDS011;9807;48.258;12.690;2024-03-23T07:56:06;5.63;;;3.43;;
19341;SDS011;9807;48.258;12.690;2024-03-23T07:58:36;7.87;;;3.33;;
19341;SDS011;9807;48.258;12.690;2024-03-23T08:01:06;3.33;;;3.03;;
19341;SDS011;9807;48.258;12.690;2024-03-23T08:03:36;6.23;;;3.40;;
19341;SDS011;9807;48.258;12.690;2024-03-23T08:08:39;3.90;;;2.87;;
19341;SDS011;9807;48.258;12.690;2024-03-23T08:11:05;4.90;;;3.50;;
19341;SDS011;9807;48.258;12.690;2024-03-23T08:13:32;6.80;;;3.40;;
19341;SDS011;9807;48.258;12.690;2024-03-23T08:15:58;5.63;;;3.27;;
19341;SDS011;9807;48.258;12.690;2024-03-23T08:18:24;6.47;;;3.53;;
19341;SDS011;9807;48.258;12.690;2024-03-23T08:20:57;6.47;;;3.03;;
19341;SDS011;9807;48.258;12.690;2024-03-23T08:23:24;3.90;;;3.37;;
19341;SDS011;9807;48.258;12.690;2024-03-23T08:25:50;6.53;;;4.10;;
19341;SDS011;9807;48.258;12.690;2024-03-23T08:28:16;5.67;;;3.70;;
19341;SDS011;9807;48.258;12.690;2024-03-23T08:30:42;9.50;;;4.57;;
19341;SDS011;9807;48.258;12.690;2024-03-23T08:33:08;7.23;;;3.60;;
19341;SDS011;9807;48.258;12.690;2024-03-23T08:35:38;6.27;;;3.70;;
19341;SDS011;9807;48.258;12.690;2024-03-23T08:38:04;7.73;;;3.27;;
19341;SDS011;9807;48.258;12.690;2024-03-23T08:40:29;3.97;;;2.03;;
19341;SDS011;9807;48.258;12.690;2024-03-23T08:42:55;4.93;;;1.47;;
19341;SDS011;9807;48.258;12.690;2024-03-23T08:45:20;4.33;;;1.67;;
19341;SDS011;9807;48.258;12.690;2024-03-23T08:47:46;6.87;;;1.67;;
19341;SDS011;9807;48.258;12.690;2024-03-23T08:50:12;3.50;;;1.60;;
19341;SDS011;9807;48.258;12.690;2024-03-23T08:52:38;2.70;;;1.53;;
19341;SDS011;9807;48.258;12.690;2024-03-23T08:55:04;2.03;;;1.87;;
19341;SDS011;9807;48.258;12.690;2024-03-23T08:57:30;5.67;;;2.37;;
19341;SDS011;9807;48.258;12.690;2024-03-23T08:59:55;4.40;;;2.40;;
19341;SDS011;9807;48.258;12.690;2024-03-23T09:02:21;4.53;;;2.10;;
19341;SDS011;9807;48.258;12.690;2024-03-23T09:04:46;4.97;;;2.50;;
19341;SDS011;9807;48.258;12.690;2024-03-23T09:07:12;4.33;;;2.27;;
19341;SDS011;9807;48.258;12.690;2024-03-23T09:09:38;5.47;;;3.90;;
19341;SDS011;9807;48.258;12.690;2024-03-23T09:12:05;4.57;;;3.83;;
19341;SDS011;9807;48.258;12.690;2024-03-23T09:14:31;4.97;;;3.67;;
19341;SDS011;9807;48.258;12.690;2024-03-23T09:16:58;5.87;;;3.40;;
19341;SDS011;9807;48.258;12.690;2024-03-23T09:19:23;5.67;;;4.17;;
19341;SDS011;9807;48.258;12.690;2024-03-23T09:21:52;7.77;;;5.00;;
19341;SDS011;9807;48.258;12.690;2024-03-23T09:24:17;7.90;;;4.73;;
19341;SDS011;9807;48.258;12.690;2024-03-23T09:26:44;5.90;;;4.53;;
19341;SDS011;9807;48.258;12.690;2024-03-23T09:29:10;5.70;;;3.87;;
19341;SDS011;9807;48.258;12.690;2024-03-23T09:31:36;9.83;;;4.67;;
19341;SDS011;9807;48.258;12.690;2024-03-23T09:34:03;5.37;;;3.37;;
19341;SDS011;9807;48.258;12.690;2024-03-23T09:36:29;5.80;;;4.17;;
19341;SDS011;9807;48.258;12.690;2024-03-23T09:38:54;7.03;;;4.07;;
19341;SDS011;9807;48.258;12.690;2024-03-23T09:41:20;4.60;;;3.50;;
19341;SDS011;9807;48.258;12.690;2024-03-23T09:43:46;6.50;;;4.33;;
19341;SDS011;9807;48.258;12.690;2024-03-23T09:46:13;6.23;;;4.60;;
19341;SDS011;9807;48.258;12.690;2024-03-23T09:48:39;6.73;;;4.57;;
19341;SDS011;9807;48.258;12.690;2024-03-23T09:51:06;7.47;;;4.80;;
19341;SDS011;9807;48.258;12.690;2024-03-23T09:53:34;7.87;;;5.00;;
19341;SDS011;9807;48.258;12.690;2024-03-23T09:56:00;12.17;;;6.17;;
19341;SDS011;9807;48.258;12.690;2024-03-23T09:58:26;12.13;;;6.60;;
19341;SDS011;9807;48.258;12.690;2024-03-23T10:00:51;11.73;;;7.20;;
19341;SDS011;9807;48.258;12.690;2024-03-23T10:03:17;8.37;;;6.00;;
19341;SDS011;9807;48.258;12.690;2024-03-23T10:05:42;11.37;;;6.03;;
19341;SDS011;9807;48.258;12.690;2024-03-23T10:10:44;15.80;;;8.83;;
19341;SDS011;9807;48.258;12.690;2024-03-23T10:13:11;32.00;;;16.20;;
19341;SDS011;9807;48.258;12.690;2024-03-23T10:15:48;12.33;;;6.83;;
19341;SDS011;9807;48.258;12.690;2024-03-23T10:18:23;10.30;;;6.30;;
19341;SDS011;9807;48.258;12.690;2024-03-23T10:23:30;8.80;;;5.47;;
19341;SDS011;9807;48.258;12.690;2024-03-23T10:26:18;8.87;;;5.47;;
19341;SDS011;9807;48.258;12.690;2024-03-23T10:28:57;9.57;;;5.50;;
19341;SDS011;9807;48.258;12.690;2024-03-23T10:31:26;7.47;;;5.30;;
19341;SDS011;9807;48.258;12.690;2024-03-23T10:33:55;10.97;;;5.57;;
19341;SDS011;9807;48.258;12.690;2024-03-23T10:36:21;11.40;;;6.33;;
19341;SDS011;9807;48.258;12.690;2024-03-23T10:38:49;11.77;;;6.20;;
19341;SDS011;9807;48.258;12.690;2024-03-23T10:41:17;8.77;;;5.77;;
19341;SDS011;9807;48.258;12.690;2024-03-23T10:43:45;10.53;;;5.30;;
19341;SDS011;9807;48.258;12.690;2024-03-23T10:46:12;7.20;;;4.10;;
19341;SDS011;9807;48.258;12.690;2024-03-23T10:48:38;7.03;;;3.70;;
19341;SDS011;9807;48.258;12.690;2024-03-23T10:51:05;3.63;;;2.73;;
19341;SDS011;9807;48.258;12.690;2024-03-23T10:53:33;2.83;;;2.07;;
19341;SDS011;9807;48.258;12.690;2024-03-23T10:55:59;1.57;;;1.47;;
19341;SDS011;9807;48.258;12.690;2024-03-23T10:58:31;2.83;;;1.40;;
19341;SDS011;9807;48.258;12.690;2024-03-23T11:01:12;2.10;;;1.30;;
19341;SDS011;9807;48.258;12.690;2024-03-23T11:03:39;3.80;;;2.10;;
19341;SDS011;9807;48.258;12.690;2024-03-23T11:06:10;1.77;;;1.60;;
19341;SDS011;9807;48.258;12.690;2024-03-23T11:08:39;1.97;;;1.50;;
19341;SDS011;9807;48.258;12.690;2024-03-23T11:11:13;1.20;;;1.10;;
19341;SDS011;9807;48.258;12.690;2024-03-23T11:13:43;3.20;;;0.70;;
19341;SDS011;9807;48.258;12.690;2024-03-23T11:16:42;4.03;;;0.80;;
19341;SDS011;9807;48.258;12.690;2024-03-23T11:22:01;2.40;;;1.90;;
19341;SDS011;9807;48.258;12.690;2024-03-23T11:24:28;2.90;;;1.40;;
19341;SDS011;9807;48.258;12.690;2024-03-23T11:26:54;1.27;;;1.00;;
19341;SDS011;9807;48.258;12.690;2024-03-23T11:29:19;2.27;;;1.00;;
19341;SDS011;9807;48.258;12.690;2024-03-23T11:31:49;1.17;;;1.07;;
19341;SDS011;9807;48.258;12.690;2024-03-23T11:34:18;2.77;;;1.20;;
19341;SDS011;9807;48.258;12.690;2024-03-23T11:36:45;2.40;;;1.23;;
19341;SDS011;9807;48.258;12.690;2024-03-23T11:39:18;1.57;;;1.33;;
19341;SDS011;9807;48.258;12.690;2024-03-23T11:41:52;3.93;;;1.60;;
19341;SDS011;9807;48.258;12.690;2024-03-23T11:44:19;6.37;;;1.40;;
19341;SDS011;9807;48.258;12.690;2024-03-23T11:46:50;6.30;;;1.73;;
19341;SDS011;9807;48.258;12.690;2024-03-23T11:49:23;5.50;;;2.00;;
19341;SDS011;9807;48.258;12.690;2024-03-23T11:51:49;3.77;;;1.90;;
19341;SDS011;9807;48.258;12.690;2024-03-23T11:54:15;1.20;;;1.03;;
19341;SDS011;9807;48.258;12.690;2024-03-23T11:56:53;1.20;;;1.10;;
19341;SDS011;9807;48.258;12.690;2024-03-23T12:01:57;2.77;;;1.40;;
19341;SDS011;9807;48.258;12.690;2024-03-23T12:04:29;3.53;;;1.93;;
19341;SDS011;9807;48.258;12.690;2024-03-23T12:07:11;1.80;;;1.20;;
19341;SDS011;9807;48.258;12.690;2024-03-23T12:09:44;3.47;;;1.50;;
19341;SDS011;9807;48.258;12.690;2024-03-23T12:12:16;1.60;;;1.20;;
19341;SDS011;9807;48.258;12.690;2024-03-23T12:14:43;4.30;;;1.23;;
19341;SDS011;9807;48.258;12.690;2024-03-23T12:17:28;2.67;;;1.33;;
19341;SDS011;9807;48.258;12.690;2024-03-23T12:19:54;1.40;;;1.30;;
19341;SDS011;9807;48.258;12.690;2024-03-23T12:22:20;4.73;;;1.73;;
19341;SDS011;9807;48.258;12.690;2024-03-23T12:24:47;3.73;;;1.73;;
19341;SDS011;9807;48.258;12.690;2024-03-23T12:27:13;1.67;;;1.40;;
19341;SDS011;9807;48.258;12.690;2024-03-23T12:29:40;1.43;;;1.33;;
19341;SDS011;9807;48.258;12.690;2024-03-23T12:32:11;2.20;;;1.50;;
19341;SDS011;9807;48.258;12.690;2024-03-23T12:34:37;2.07;;;1.80;;
19341;SDS011;9807;48.258;12.690;2024-03-23T12:37:03;4.33;;;2.17;;
19341;SDS011;9807;48.258;12.690;2024-03-23T12:39:29;2.27;;;1.70;;
19341;SDS011;9807;48.258;12.690;2024-03-23T12:41:55;6.17;;;1.90;;
19341;SDS011;9807;48.258;12.690;2024-03-23T12:44:20;3.37;;;1.93;;
19341;SDS011;9807;48.258;12.690;2024-03-23T12:46:46;2.33;;;1.67;;
19341;SDS011;9807;48.258;12.690;2024-03-23T12:49:12;5.80;;;2.00;;
19341;SDS011;9807;48.258;12.690;2024-03-23T12:51:38;4.50;;;1.63;;
19341;SDS011;9807;48.258;12.690;2024-03-23T12:54:04;3.63;;;1.57;;
19341;SDS011;9807;48.258;12.690;2024-03-23T12:56:30;4.10;;;2.07;;
19341;SDS011;9807;48.258;12.690;2024-03-23T12:58:55;3.17;;;1.80;;
19341;SDS011;9807;48.258;12.690;2024-03-23T13:01:22;3.83;;;2.00;;
19341;SDS011;9807;48.258;12.690;2024-03-23T13:03:51;3.43;;;2.10;;
19341;SDS011;9807;48.258;12.690;2024-03-23T13:06:17;3.17;;;1.90;;
19341;SDS011;9807;48.258;12.690;2024-03-23T13:08:44;3.60;;;2.33;;
19341;SDS011;9807;48.258;12.690;2024-03-23T13:11:10;3.60;;;1.60;;
19341;SDS011;9807;48.258;12.690;2024-03-23T13:13:36;4.97;;;2.03;;
19341;SDS011;9807;48.258;12.690;2024-03-23T13:16:03;3.17;;;2.03;;
19341;SDS011;9807;48.258;12.690;2024-03-23T13:18:30;3.20;;;1.97;;
19341;SDS011;9807;48.258;12.690;2024-03-23T13:20:56;4.90;;;2.20;;
19341;SDS011;9807;48.258;12.690;2024-03-23T13:23:22;3.50;;;2.00;;
19341;SDS011;9807;48.258;12.690;2024-03-23T13:25:54;5.17;;;2.43;;
19341;SDS011;9807;48.258;12.690;2024-03-23T13:28:21;2.70;;;2.10;;
19341;SDS011;9807;48.258;12.690;2024-03-23T13:30:54;6.67;;;3.70;;
19341;SDS011;9807;48.258;12.690;2024-03-23T13:33:21;3.53;;;1.87;;
19341;SDS011;9807;48.258;12.690;2024-03-23T13:35:50;4.73;;;2.40;;
19341;SDS011;9807;48.258;12.690;2024-03-23T13:38:16;3.30;;;2.30;;
19341;SDS011;9807;48.258;12.690;2024-03-23T13:40:49;4.17;;;2.63;;
19341;SDS011;9807;48.258;12.690;2024-03-23T13:43:16;5.13;;;2.90;;
19341;SDS011;9807;48.258;12.690;2024-03-23T13:45:41;3.40;;;2.40;;
19341;SDS011;9807;48.258;12.690;2024-03-23T13:48:07;5.10;;;2.60;;
19341;SDS011;9807;48.258;12.690;2024-03-23T13:50:33;4.73;;;2.47;;
19341;SDS011;9807;48.258;12.690;2024-03-23T13:52:59;4.80;;;2.33;;
19341;SDS011;9807;48.258;12.690;2024-03-23T13:55:25;4.17;;;2.20;;
19341;SDS011;9807;48.258;12.690;2024-03-23T13:57:51;4.00;;;2.33;;
19341;SDS011;9807;48.258;12.690;2024-03-23T14:00:17;3.40;;;2.00;;
19341;SDS011;9807;48.258;12.690;2024-03-23T14:02:43;3.10;;;2.30;;
19341;SDS011;9807;48.258;12.690;2024-03-23T14:05:09;4.83;;;1.90;;
19341;SDS011;9807;48.258;12.690;2024-03-23T14:07:36;5.77;;;2.10;;
19341;SDS011;9807;48.258;12.690;2024-03-23T14:10:02;3.87;;;2.20;;
19341;SDS011;9807;48.258;12.690;2024-03-23T14:12:29;4.70;;;2.47;;
19341;SDS011;9807;48.258;12.690;2024-03-23T14:14:55;4.77;;;2.10;;
19341;SDS011;9807;48.258;12.690;2024-03-23T14:17:21;7.00;;;2.07;;
19341;SDS011;9807;48.258;12.690;2024-03-23T14:19:46;3.73;;;2.13;;
19341;SDS011;9807;48.258;12.690;2024-03-23T14:22:12;3.53;;;2.10;;
19341;SDS011;9807;48.258;12.690;2024-03-23T14:24:38;8.63;;;2.13;;
19341;SDS011;9807;48.258;12.690;2024-03-23T14:27:04;5.00;;;2.33;;
19341;SDS011;9807;48.258;12.690;2024-03-23T14:29:32;6.93;;;2.50;;
19341;SDS011;9807;48.258;12.690;2024-03-23T14:31:59;9.47;;;2.50;;
19341;SDS011;9807;48.258;12.690;2024-03-23T14:34:26;5.80;;;2.20;;
19341;SDS011;9807;48.258;12.690;2024-03-23T14:36:55;4.37;;;2.00;;
19341;SDS011;9807;48.258;12.690;2024-03-23T14:39:23;4.77;;;2.40;;
19341;SDS011;9807;48.258;12.690;2024-03-23T14:41:52;6.63;;;2.53;;
19341;SDS011;9807;48.258;12.690;2024-03-23T14:44:18;6.67;;;2.10;;
19341;SDS011;9807;48.258;12.690;2024-03-23T14:46:44;6.53;;;2.60;;
19341;SDS011;9807;48.258;12.690;2024-03-23T14:49:14;4.90;;;2.27;;
19341;SDS011;9807;48.258;12.690;2024-03-23T14:51:41;6.63;;;2.43;;
19341;SDS011;9807;48.258;12.690;2024-03-23T14:54:07;7.37;;;2.77;;
19341;SDS011;9807;48.258;12.690;2024-03-23T14:56:35;7.20;;;2.47;;
19341;SDS011;9807;48.258;12.690;2024-03-23T14:59:01;6.53;;;3.07;;
19341;SDS011;9807;48.258;12.690;2024-03-23T15:01:27;9.43;;;4.03;;
19341;SDS011;9807;48.258;12.690;2024-03-23T15:03:53;8.50;;;3.40;;
19341;SDS011;9807;48.258;12.690;2024-03-23T15:06:19;12.13;;;4.10;;
19341;SDS011;9807;48.258;12.690;2024-03-23T15:08:45;13.93;;;4.57;;
19341;SDS011;9807;48.258;12.690;2024-03-23T15:11:10;17.47;;;5.30;;
19341;SDS011;9807;48.258;12.690;2024-03-23T15:13:36;10.47;;;4.33;;
19341;SDS011;9807;48.258;12.690;2024-03-23T15:16:03;11.87;;;4.57;;
19341;SDS011;9807;48.258;12.690;2024-03-23T15:18:30;16.50;;;5.50;;
19341;SDS011;9807;48.258;12.690;2024-03-23T15:20:57;13.93;;;4.93;;
19341;SDS011;9807;48.258;12.690;2024-03-23T15:23:27;10.47;;;4.10;;
19341;SDS011;9807;48.258;12.690;2024-03-23T15:25:53;15.17;;;5.13;;
19341;SDS011;9807;48.258;12.690;2024-03-23T15:28:25;9.53;;;3.97;;
19341;SDS011;9807;48.258;12.690;2024-03-23T15:31:04;7.20;;;3.90;;
19341;SDS011;9807;48.258;12.690;2024-03-23T15:33:30;8.93;;;4.33;;
19341;SDS011;9807;48.258;12.690;2024-03-23T15:35:59;8.37;;;4.20;;
19341;SDS011;9807;48.258;12.690;2024-03-23T15:38:28;8.43;;;4.47;;
19341;SDS011;9807;48.258;12.690;2024-03-23T15:40:56;11.03;;;5.10;;
19341;SDS011;9807;48.258;12.690;2024-03-23T15:43:22;11.83;;;6.20;;
19341;SDS011;9807;48.258;12.690;2024-03-23T15:45:57;12.23;;;6.93;;
19341;SDS011;9807;48.258;12.690;2024-03-23T15:48:27;12.87;;;6.00;;
19341;SDS011;9807;48.258;12.690;2024-03-23T15:50:55;13.63;;;5.93;;